sensor_id;sensor_type;location;lat;lon;timestamp;pressure;altitude;pressure_sealevel;temperature;humidity
6034;BME280;3045;43.226;27.858;2023-01-24T00:01:01;146682.50;;;2.48;100.00
6034;BME280;3045;43.226;27.858;2023-01-24T00:03:28;146480.19;;;2.55;100.00
6034;BME280;3045;43.226;27.858;2023-01-24T00:05:55;146713.91;;;2.61;100.00
6034;BME280;3045;43.226;27.858;2023-01-24T00:08:22;146681.25;;;2.48;100.00
6034;BME280;3045;43.226;27.858;2023-01-24T00:10:49;146686.28;;;2.50;100.00
6034;BME280;3045;43.226;27.858;2023-01-24T00:13:26;146693.81;;;2.53;100.00
6034;BME280;3045;43.226;27.858;2023-01-24T00:16:06;146666.22;;;2.42;100.00
6034;BME280;3045;43.226;27.858;2023-01-24T00:18:34;146662.44;;;2.40;100.00
6034;BME280;3045;43.226;27.858;2023-01-24T00:21:01;146692.56;;;2.52;100.00
6034;BME280;3045;43.226;27.858;2023-01-24T00:23:28;146707.63;;;2.58;100.00
6034;BME280;3045;43.226;27.858;2023-01-24T00:25:55;146671.22;;;2.44;100.00
6034;BME280;3045;43.226;27.858;2023-01-24T00:28:22;146697.59;;;2.54;100.00
6034;BME280;3045;43.226;27.858;2023-01-24T00:30:49;146726.47;;;2.66;100.00
6034;BME280;3045;43.226;27.858;2023-01-24T00:33:17;146702.59;;;2.56;100.00
6034;BME280;3045;43.226;27.858;2023-01-24T00:35:44;146687.56;;;2.50;100.00
6034;BME280;3045;43.226;27.858;2023-01-24T00:38:11;146693.81;;;2.53;100.00
6034;BME280;3045;43.226;27.858;2023-01-24T00:40:38;146673.72;;;2.45;100.00
6034;BME280;3045;43.226;27.858;2023-01-24T00:43:04;146685.03;;;2.49;100.00
6034;BME280;3045;43.226;27.858;2023-01-24T00:45:34;146701.34;;;2.56;100.00
6034;BME280;3045;43.226;27.858;2023-01-24T00:48:01;146692.56;;;2.52;100.00
6034;BME280;3045;43.226;27.858;2023-01-24T00:50:30;146668.69;;;2.43;100.00
6034;BME280;3045;43.226;27.858;2023-01-24T00:52:57;146653.66;;;2.37;100.00
6034;BME280;3045;43.226;27.858;2023-01-24T00:55:24;146663.69;;;2.41;100.00
6034;BME280;3045;43.226;27.858;2023-01-24T00:57:51;146653.66;;;2.37;100.00
6034;BME280;3045;43.226;27.858;2023-01-24T01:00:18;145946.25;;;2.24;100.00
6034;BME280;3045;43.226;27.858;2023-01-24T01:02:45;142139.72;;;2.21;100.00
6034;BME280;3045;43.226;27.858;2023-01-24T01:05:12;140126.59;;;2.35;100.00
6034;BME280;3045;43.226;27.858;2023-01-24T01:07:40;138613.88;;;2.22;100.00
6034;BME280;3045;43.226;27.858;2023-01-24T01:10:08;133489.69;;;2.11;100.00
6034;BME280;3045;43.226;27.858;2023-01-24T01:12:36;131266.94;;;2.30;100.00
6034;BME280;3045;43.226;27.858;2023-01-24T01:15:05;128110.28;;;2.32;100.00
6034;BME280;3045;43.226;27.858;2023-01-24T01:17:32;123223.13;;;2.33;100.00
6034;BME280;3045;43.226;27.858;2023-01-24T01:19:59;124317.06;;;2.35;100.00
6034;BME280;3045;43.226;27.858;2023-01-24T01:22:27;125074.25;;;2.33;100.00
6034;BME280;3045;43.226;27.858;2023-01-24T01:24:55;125600.28;;;2.43;100.00
6034;BME280;3045;43.226;27.858;2023-01-24T01:27:22;124392.88;;;2.37;100.00
6034;BME280;3045;43.226;27.858;2023-01-24T01:29:49;115336.56;;;2.27;100.00
6034;BME280;3045;43.226;27.858;2023-01-24T01:32:16;109564.72;;;2.14;100.00
6034;BME280;3045;43.226;27.858;2023-01-24T01:34:42;107695.34;;;2.27;100.00
6034;BME280;3045;43.226;27.858;2023-01-24T01:37:09;108520.59;;;2.25;100.00
6034;BME280;3045;43.226;27.858;2023-01-24T01:39:36;107412.25;;;2.21;100.00
6034;BME280;3045;43.226;27.858;2023-01-24T01:42:04;104676.34;;;2.22;100.00
6034;BME280;3045;43.226;27.858;2023-01-24T01:44:32;103974.22;;;2.10;100.00
6034;BME280;3045;43.226;27.858;2023-01-24T01:47:13;103575.50;;;2.28;100.00
6034;BME280;3045;43.226;27.858;2023-01-24T01:49:45;109861.16;;;2.35;100.00
6034;BME280;3045;43.226;27.858;2023-01-24T01:52:13;114155.03;;;2.13;100.00
6034;BME280;3045;43.226;27.858;2023-01-24T01:54:41;114909.06;;;2.26;100.00
6034;BME280;3045;43.226;27.858;2023-01-24T01:57:13;113595.38;;;2.29;100.00
6034;BME280;3045;43.226;27.858;2023-01-24T01:59:46;115338.75;;;2.42;100.00
6034;BME280;3045;43.226;27.858;2023-01-24T02:02:15;118448.22;;;2.27;100.00
6034;BME280;3045;43.226;27.858;2023-01-24T02:04:46;116515.22;;;2.35;100.00
6034;BME280;3045;43.226;27.858;2023-01-24T02:07:19;114830.72;;;2.32;100.00
6034;BME280;3045;43.226;27.858;2023-01-24T02:09:49;113735.31;;;2.25;100.00
6034;BME280;3045;43.226;27.858;2023-01-24T02:12:21;114496.97;;;2.39;100.00
6034;BME280;3045;43.226;27.858;2023-01-24T02:14:53;115857.88;;;2.48;100.00
6034;BME280;3045;43.226;27.858;2023-01-24T02:17:38;112533.50;;;2.48;100.00
6034;BME280;3045;43.226;27.858;2023-01-24T02:20:15;115977.84;;;2.45;100.00
6034;BME280;3045;43.226;27.858;2023-01-24T02:22:49;117536.38;;;2.44;100.00
6034;BME280;3045;43.226;27.858;2023-01-24T02:25:26;114304.31;;;2.33;100.00
6034;BME280;3045;43.226;27.858;2023-01-24T02:27:58;104663.81;;;2.32;100.00
6034;BME280;3045;43.226;27.858;2023-01-24T02:30:26;97633.53;;;2.30;100.00
6034;BME280;3045;43.226;27.858;2023-01-24T02:32:53;91880.78;;;2.27;100.00
6034;BME280;3045;43.226;27.858;2023-01-24T02:35:28;87701.06;;;2.13;100.00
6034;BME280;3045;43.226;27.858;2023-01-24T02:37:57;88115.59;;;2.28;100.00
6034;BME280;3045;43.226;27.858;2023-01-24T02:40:24;88987.63;;;2.20;100.00
6034;BME280;3045;43.226;27.858;2023-01-24T02:42:54;89590.53;;;1.89;100.00
6034;BME280;3045;43.226;27.858;2023-01-24T02:45:25;91315.78;;;2.25;100.00
6034;BME280;3045;43.226;27.858;2023-01-24T02:47:54;89913.72;;;2.28;100.00
6034;BME280;3045;43.226;27.858;2023-01-24T02:50:23;89880.97;;;2.34;100.00
6034;BME280;3045;43.226;27.858;2023-01-24T02:52:50;88826.50;;;2.42;100.00
6034;BME280;3045;43.226;27.858;2023-01-24T02:55:36;90411.50;;;2.33;100.00
6034;BME280;3045;43.226;27.858;2023-01-24T02:58:26;86786.75;;;2.38;100.00
6034;BME280;3045;43.226;27.858;2023-01-24T03:00:54;90117.63;;;2.29;100.00
6034;BME280;3045;43.226;27.858;2023-01-24T03:03:20;89208.91;;;2.22;100.00
6034;BME280;3045;43.226;27.858;2023-01-24T03:05:47;85327.41;;;2.07;100.00
6034;BME280;3045;43.226;27.858;2023-01-24T03:08:22;85277.44;;;2.01;100.00
6034;BME280;3045;43.226;27.858;2023-01-24T03:10:49;83716.56;;;2.14;100.00
6034;BME280;3045;43.226;27.858;2023-01-24T03:13:18;84615.50;;;2.21;100.00
6034;BME280;3045;43.226;27.858;2023-01-24T03:16:05;89216.78;;;2.09;100.00
6034;BME280;3045;43.226;27.858;2023-01-24T03:18:50;89519.09;;;2.05;100.00
6034;BME280;3045;43.226;27.858;2023-01-24T03:21:34;90667.41;;;2.10;100.00
6034;BME280;3045;43.226;27.858;2023-01-24T03:24:19;91005.22;;;2.13;100.00
6034;BME280;3045;43.226;27.858;2023-01-24T03:27:03;96388.00;;;2.07;100.00
6034;BME280;3045;43.226;27.858;2023-01-24T03:29:48;98026.66;;;2.14;100.00
6034;BME280;3045;43.226;27.858;2023-01-24T03:32:33;105382.91;;;2.02;100.00
6034;BME280;3045;43.226;27.858;2023-01-24T03:35:18;110298.06;;;2.05;100.00
6034;BME280;3045;43.226;27.858;2023-01-24T03:37:45;109031.75;;;2.10;100.00
6034;BME280;3045;43.226;27.858;2023-01-24T03:40:29;116985.16;;;1.95;100.00
6034;BME280;3045;43.226;27.858;2023-01-24T03:42:56;106920.06;;;1.86;100.00
6034;BME280;3045;43.226;27.858;2023-01-24T03:45:24;105944.53;;;1.77;100.00
6034;BME280;3045;43.226;27.858;2023-01-24T03:47:54;101745.66;;;1.66;100.00
6034;BME280;3045;43.226;27.858;2023-01-24T03:50:22;97879.91;;;1.79;100.00
6034;BME280;3045;43.226;27.858;2023-01-24T03:53:08;102612.94;;;1.89;100.00
6034;BME280;3045;43.226;27.858;2023-01-24T03:55:35;105003.06;;;1.97;100.00
6034;BME280;3045;43.226;27.858;2023-01-24T03:58:02;112009.97;;;1.76;100.00
6034;BME280;3045;43.226;27.858;2023-01-24T04:00:30;111298.47;;;2.00;100.00
6034;BME280;3045;43.226;27.858;2023-01-24T04:02:58;113233.66;;;1.87;100.00
6034;BME280;3045;43.226;27.858;2023-01-24T04:05:25;114367.53;;;1.92;100.00
6034;BME280;3045;43.226;27.858;2023-01-24T04:07:52;118809.03;;;1.77;100.00
6034;BME280;3045;43.226;27.858;2023-01-24T04:10:19;118285.97;;;1.88;100.00
6034;BME280;3045;43.226;27.858;2023-01-24T04:12:46;114727.41;;;1.79;100.00
6034;BME280;3045;43.226;27.858;2023-01-24T04:15:16;117565.91;;;2.05;100.00
6034;BME280;3045;43.226;27.858;2023-01-24T04:17:43;126470.63;;;1.97;100.00
6034;BME280;3045;43.226;27.858;2023-01-24T04:20:12;126651.78;;;1.91;100.00
6034;BME280;3045;43.226;27.858;2023-01-24T04:22:40;124552.09;;;1.89;100.00
6034;BME280;3045;43.226;27.858;2023-01-24T04:25:08;127000.56;;;2.01;100.00
6034;BME280;3045;43.226;27.858;2023-01-24T04:27:36;128449.19;;;2.07;100.00
6034;BME280;3045;43.226;27.858;2023-01-24T04:30:03;132556.09;;;1.99;100.00
6034;BME280;3045;43.226;27.858;2023-01-24T04:32:30;133585.16;;;2.04;100.00
6034;BME280;3045;43.226;27.858;2023-01-24T04:34:57;134047.84;;;1.92;100.00
6034;BME280;3045;43.226;27.858;2023-01-24T04:37:27;132018.03;;;2.01;100.00
6034;BME280;3045;43.226;27.858;2023-01-24T04:39:53;132399.88;;;1.68;100.00
6034;BME280;3045;43.226;27.858;2023-01-24T04:42:20;119290.25;;;1.78;100.00
6034;BME280;3045;43.226;27.858;2023-01-24T04:44:47;122330.94;;;1.78;100.00
6034;BME280;3045;43.226;27.858;2023-01-24T04:47:14;128458.28;;;1.70;100.00
6034;BME280;3045;43.226;27.858;2023-01-24T04:49:41;134324.41;;;1.82;100.00
6034;BME280;3045;43.226;27.858;2023-01-24T04:52:09;139608.72;;;1.87;100.00
6034;BME280;3045;43.226;27.858;2023-01-24T04:54:38;140264.44;;;2.00;100.00
6034;BME280;3045;43.226;27.858;2023-01-24T04:57:05;139820.72;;;1.92;100.00
6034;BME280;3045;43.226;27.858;2023-01-24T04:59:32;138348.50;;;1.95;100.00
6034;BME280;3045;43.226;27.858;2023-01-24T05:01:59;137673.88;;;2.04;100.00
6034;BME280;3045;43.226;27.858;2023-01-24T05:04:26;140266.13;;;1.97;100.00
6034;BME280;3045;43.226;27.858;2023-01-24T05:06:53;141595.88;;;2.09;100.00
6034;BME280;3045;43.226;27.858;2023-01-24T05:09:20;144148.63;;;2.14;100.00
6034;BME280;3045;43.226;27.858;2023-01-24T05:11:48;146127.97;;;1.97;100.00
6034;BME280;3045;43.226;27.858;2023-01-24T05:14:15;146580.84;;;2.07;100.00
6034;BME280;3045;43.226;27.858;2023-01-24T05:16:42;146610.97;;;2.19;100.00
6034;BME280;3045;43.226;27.858;2023-01-24T05:19:09;146565.78;;;2.01;100.00
6034;BME280;3045;43.226;27.858;2023-01-24T05:21:36;146564.50;;;2.01;100.00
6034;BME280;3045;43.226;27.858;2023-01-24T05:24:03;146559.53;;;1.99;100.00
6034;BME280;3045;43.226;27.858;2023-01-24T05:26:30;146543.19;;;1.92;100.00
6034;BME280;3045;43.226;27.858;2023-01-24T05:28:58;146568.28;;;2.02;100.00
6034;BME280;3045;43.226;27.858;2023-01-24T05:31:25;146567.03;;;2.02;100.00
6034;BME280;3045;43.226;27.858;2023-01-24T05:33:52;146570.81;;;2.03;100.00
6034;BME280;3045;43.226;27.858;2023-01-24T05:36:20;146559.53;;;1.99;100.00
6034;BME280;3045;43.226;27.858;2023-01-24T05:38:48;146540.66;;;1.91;100.00
6034;BME280;3045;43.226;27.858;2023-01-24T05:41:19;146557.00;;;1.98;100.00
6034;BME280;3045;43.226;27.858;2023-01-24T05:43:47;146562.00;;;2.00;100.00
6034;BME280;3045;43.226;27.858;2023-01-24T05:46:18;146573.28;;;2.04;100.00
6034;BME280;3045;43.226;27.858;2023-01-24T05:48:46;146585.84;;;2.09;100.00
6034;BME280;3045;43.226;27.858;2023-01-24T05:51:14;146583.31;;;2.08;100.00
6034;BME280;3045;43.226;27.858;2023-01-24T05:53:42;146557.00;;;1.98;100.00
6034;BME280;3045;43.226;27.858;2023-01-24T05:56:11;146584.59;;;2.09;100.00
6034;BME280;3045;43.226;27.858;2023-01-24T05:58:40;146565.78;;;2.01;100.00
6034;BME280;3045;43.226;27.858;2023-01-24T06:01:08;146563.25;;;2.00;100.00
6034;BME280;3045;43.226;27.858;2023-01-24T06:03:38;146548.22;;;1.94;100.00
6034;BME280;3045;43.226;27.858;2023-01-24T06:06:06;146574.56;;;2.05;100.00
6034;BME280;3045;43.226;27.858;2023-01-24T06:08:34;146573.28;;;2.04;100.00
6034;BME280;3045;43.226;27.858;2023-01-24T06:11:03;146593.38;;;2.12;100.00
6034;BME280;3045;43.226;27.858;2023-01-24T06:13:30;146573.28;;;2.04;100.00
6034;BME280;3045;43.226;27.858;2023-01-24T06:16:02;146582.13;;;2.08;100.00
6034;BME280;3045;43.226;27.858;2023-01-24T06:18:29;146583.31;;;2.08;100.00
6034;BME280;3045;43.226;27.858;2023-01-24T06:20:58;146622.28;;;2.24;100.00
6034;BME280;3045;43.226;27.858;2023-01-24T06:23:30;146628.53;;;2.26;100.00
6034;BME280;3045;43.226;27.858;2023-01-24T06:25:58;146602.19;;;2.16;100.00
6034;BME280;3045;43.226;27.858;2023-01-24T06:28:25;146633.56;;;2.28;100.00
6034;BME280;3045;43.226;27.858;2023-01-24T06:31:01;146662.44;;;2.40;100.00
6034;BME280;3045;43.226;27.858;2023-01-24T06:33:35;146653.66;;;2.37;100.00
6034;BME280;3045;43.226;27.858;2023-01-24T06:39:10;146634.81;;;2.29;100.00
6034;BME280;3045;43.226;27.858;2023-01-24T06:41:39;146638.56;;;2.30;100.00
6034;BME280;3045;43.226;27.858;2023-01-24T06:44:08;146638.56;;;2.30;100.00
6034;BME280;3045;43.226;27.858;2023-01-24T06:46:36;146652.38;;;2.36;100.00
6034;BME280;3045;43.226;27.858;2023-01-24T06:49:03;146666.22;;;2.42;100.00
6034;BME280;3045;43.226;27.858;2023-01-24T06:51:30;146677.47;;;2.46;100.00
6034;BME280;3045;43.226;27.858;2023-01-24T06:53:57;146691.28;;;2.52;100.00
6034;BME280;3045;43.226;27.858;2023-01-24T06:56:25;146673.72;;;2.45;100.00
6034;BME280;3045;43.226;27.858;2023-01-24T06:58:52;146676.25;;;2.46;100.00
6034;BME280;3045;43.226;27.858;2023-01-24T07:01:19;146703.84;;;2.57;100.00
6034;BME280;3045;43.226;27.858;2023-01-24T07:03:46;146701.34;;;2.56;100.00
6034;BME280;3045;43.226;27.858;2023-01-24T07:06:13;146651.13;;;2.36;100.00
6034;BME280;3045;43.226;27.858;2023-01-24T07:08:40;146693.81;;;2.53;100.00
6034;BME280;3045;43.226;27.858;2023-01-24T07:11:09;146705.13;;;2.57;100.00
6034;BME280;3045;43.226;27.858;2023-01-24T07:13:37;146698.81;;;2.55;100.00
6034;BME280;3045;43.226;27.858;2023-01-24T07:16:05;146706.38;;;2.58;100.00
6034;BME280;3045;43.226;27.858;2023-01-24T07:18:32;146717.69;;;2.62;100.00
6034;BME280;3045;43.226;27.858;2023-01-24T07:21:03;146690.03;;;2.51;100.00
6034;BME280;3045;43.226;27.858;2023-01-24T07:23:31;146648.59;;;2.35;100.00
6034;BME280;3045;43.226;27.858;2023-01-24T07:26:01;146698.81;;;2.55;100.00
6034;BME280;3045;43.226;27.858;2023-01-24T07:28:36;146707.63;;;2.58;100.00
6034;BME280;3045;43.226;27.858;2023-01-24T07:31:07;146717.69;;;2.62;100.00
6034;BME280;3045;43.226;27.858;2023-01-24T07:33:35;146716.41;;;2.62;100.00
6034;BME280;3045;43.226;27.858;2023-01-24T07:36:10;146736.50;;;2.70;100.00
6034;BME280;3045;43.226;27.858;2023-01-24T07:38:44;146739.03;;;2.71;100.00
6034;BME280;3045;43.226;27.858;2023-01-24T07:41:16;146742.75;;;2.72;100.00
6034;BME280;3045;43.226;27.858;2023-01-24T07:43:44;146744.03;;;2.73;100.00
6034;BME280;3045;43.226;27.858;2023-01-24T07:46:13;146754.06;;;2.77;100.00
6034;BME280;3045;43.226;27.858;2023-01-24T07:48:42;146746.56;;;2.74;100.00
6034;BME280;3045;43.226;27.858;2023-01-24T07:51:11;146739.03;;;2.71;100.00
6034;BME280;3045;43.226;27.858;2023-01-24T07:53:40;146765.38;;;2.82;100.00
6034;BME280;3045;43.226;27.858;2023-01-24T07:56:09;146751.53;;;2.76;100.00
6034;BME280;3045;43.226;27.858;2023-01-24T07:58:36;146781.72;;;2.88;100.00
6034;BME280;3045;43.226;27.858;2023-01-24T08:01:03;146756.59;;;2.78;100.00
6034;BME280;3045;43.226;27.858;2023-01-24T08:03:31;146769.16;;;2.83;100.00
6034;BME280;3045;43.226;27.858;2023-01-24T08:06:02;146721.41;;;2.64;100.00
6034;BME280;3045;43.226;27.858;2023-01-24T08:08:31;146793.03;;;2.93;100.00
6034;BME280;3045;43.226;27.858;2023-01-24T08:10:57;146818.13;;;3.03;100.00
6034;BME280;3045;43.226;27.858;2023-01-24T08:13:24;146843.28;;;3.13;100.00
6034;BME280;3045;43.226;27.858;2023-01-24T08:15:51;146859.56;;;3.19;100.00
6034;BME280;3045;43.226;27.858;2023-01-24T08:18:19;146894.78;;;3.34;100.00
6034;BME280;3045;43.226;27.858;2023-01-24T08:20:47;146873.41;;;3.25;100.00
6034;BME280;3045;43.226;27.858;2023-01-24T08:23:14;146847.00;;;3.14;100.00
6034;BME280;3045;43.226;27.858;2023-01-24T08:25:42;146821.91;;;3.04;100.00
6034;BME280;3045;43.226;27.858;2023-01-24T08:28:09;146858.31;;;3.19;100.00
6034;BME280;3045;43.226;27.858;2023-01-24T08:30:36;146882.19;;;3.29;100.00
6034;BME280;3045;43.226;27.858;2023-01-24T08:33:12;146904.81;;;3.38;100.00
6034;BME280;3045;43.226;27.858;2023-01-24T08:35:43;146899.78;;;3.36;100.00
6034;BME280;3045;43.226;27.858;2023-01-24T08:38:12;146884.72;;;3.30;100.00
6034;BME280;3045;43.226;27.858;2023-01-24T08:40:38;146842.00;;;3.12;100.00
6034;BME280;3045;43.226;27.858;2023-01-24T08:43:06;146878.41;;;3.27;100.00
6034;BME280;3045;43.226;27.858;2023-01-24T08:45:33;146911.09;;;3.40;100.00
6034;BME280;3045;43.226;27.858;2023-01-24T08:48:00;146899.78;;;3.36;100.00
6034;BME280;3045;43.226;27.858;2023-01-24T08:50:28;146917.38;;;3.43;100.00
6034;BME280;3045;43.226;27.858;2023-01-24T08:52:56;146948.81;;;3.55;100.00
6034;BME280;3045;43.226;27.858;2023-01-24T08:55:24;146978.97;;;3.67;100.00
6034;BME280;3045;43.226;27.858;2023-01-24T08:57:51;146976.44;;;3.66;100.00
6034;BME280;3045;43.226;27.858;2023-01-24T09:00:18;146997.78;;;3.75;100.00
6034;BME280;3045;43.226;27.858;2023-01-24T09:02:45;147039.28;;;3.92;100.00
6034;BME280;3045;43.226;27.858;2023-01-24T09:05:12;147056.84;;;3.99;100.00
6034;BME280;3045;43.226;27.858;2023-01-24T09:07:39;147092.06;;;4.13;100.00
6034;BME280;3045;43.226;27.858;2023-01-24T09:10:08;147075.75;;;4.06;100.00
6034;BME280;3045;43.226;27.858;2023-01-24T09:12:36;147085.81;;;4.10;100.00
6034;BME280;3045;43.226;27.858;2023-01-24T09:15:04;147105.91;;;4.19;100.00
6034;BME280;3045;43.226;27.858;2023-01-24T09:17:31;147088.34;;;4.11;100.00
6034;BME280;3045;43.226;27.858;2023-01-24T09:19:59;147114.72;;;4.22;100.00
6034;BME280;3045;43.226;27.858;2023-01-24T09:22:26;147093.34;;;4.13;100.00
6034;BME280;3045;43.226;27.858;2023-01-24T09:24:53;147114.72;;;4.22;100.00
6034;BME280;3045;43.226;27.858;2023-01-24T09:27:20;147105.91;;;4.19;100.00
6034;BME280;3045;43.226;27.858;2023-01-24T09:29:48;147085.81;;;4.10;100.00
6034;BME280;3045;43.226;27.858;2023-01-24T09:32:15;147127.28;;;4.27;100.00
6034;BME280;3045;43.226;27.858;2023-01-24T09:34:43;147138.63;;;4.32;100.00
6034;BME280;3045;43.226;27.858;2023-01-24T09:37:12;147147.41;;;4.35;100.00
6034;BME280;3045;43.226;27.858;2023-01-24T09:39:42;147206.50;;;4.59;100.00
6034;BME280;3045;43.226;27.858;2023-01-24T09:42:13;147214.09;;;4.62;100.00
6034;BME280;3045;43.226;27.858;2023-01-24T09:44:46;147254.31;;;4.78;100.00
6034;BME280;3045;43.226;27.858;2023-01-24T09:47:20;147308.44;;;5.00;100.00
6034;BME280;3045;43.226;27.858;2023-01-24T09:49:52;147323.50;;;5.06;100.00
6034;BME280;3045;43.226;27.858;2023-01-24T09:52:28;147284.50;;;4.90;100.00
6034;BME280;3045;43.226;27.858;2023-01-24T09:55:00;147294.56;;;4.94;100.00
6034;BME280;3045;43.226;27.858;2023-01-24T09:57:34;147237.94;;;4.72;100.00
6034;BME280;3045;43.226;27.858;2023-01-24T10:00:14;147281.97;;;4.89;100.00
6034;BME280;3045;43.226;27.858;2023-01-24T10:02:47;147344.88;;;5.15;100.00
6034;BME280;3045;43.226;27.858;2023-01-24T10:05:15;147402.81;;;5.38;100.00
6034;BME280;3045;43.226;27.858;2023-01-24T10:10:48;147472.00;;;5.66;100.00
6034;BME280;3045;43.226;27.858;2023-01-24T10:13:30;147516.09;;;5.83;100.00
6034;BME280;3045;43.226;27.858;2023-01-24T10:16:11;147519.88;;;5.85;100.00
6034;BME280;3045;43.226;27.858;2023-01-24T10:18:53;147473.28;;;5.66;100.00
6034;BME280;3045;43.226;27.858;2023-01-24T10:21:36;147483.34;;;5.70;100.00
6034;BME280;3045;43.226;27.858;2023-01-24T10:24:07;147440.53;;;5.53;100.00
6034;BME280;3045;43.226;27.858;2023-01-24T10:26:39;147474.53;;;5.67;100.00
6034;BME280;3045;43.226;27.858;2023-01-24T10:29:13;147475.81;;;5.67;100.00
6034;BME280;3045;43.226;27.858;2023-01-24T10:31:43;147478.34;;;5.68;100.00
6034;BME280;3045;43.226;27.858;2023-01-24T10:34:16;147450.59;;;5.57;100.00
6034;BME280;3045;43.226;27.858;2023-01-24T10:36:48;147425.47;;;5.47;100.00
6034;BME280;3045;43.226;27.858;2023-01-24T10:39:15;147425.47;;;5.47;100.00
6034;BME280;3045;43.226;27.858;2023-01-24T10:41:42;147412.88;;;5.42;100.00
6034;BME280;3045;43.226;27.858;2023-01-24T10:44:13;147404.06;;;5.38;100.00
6034;BME280;3045;43.226;27.858;2023-01-24T10:47:02;147435.53;;;5.51;100.00
6034;BME280;3045;43.226;27.858;2023-01-24T10:49:40;147434.28;;;5.50;100.00
6034;BME280;3045;43.226;27.858;2023-01-24T10:52:13;147425.47;;;5.47;100.00
6034;BME280;3045;43.226;27.858;2023-01-24T10:54:43;147433.00;;;5.50;100.00
6034;BME280;3045;43.226;27.858;2023-01-24T10:57:17;147430.47;;;5.49;100.00
6034;BME280;3045;43.226;27.858;2023-01-24T10:59:45;147436.78;;;5.51;100.00
6034;BME280;3045;43.226;27.858;2023-01-24T11:02:20;147417.88;;;5.44;100.00
6034;BME280;3045;43.226;27.858;2023-01-24T11:04:52;147439.28;;;5.52;100.00
6034;BME280;3045;43.226;27.858;2023-01-24T11:07:29;147376.34;;;5.27;100.00
6034;BME280;3045;43.226;27.858;2023-01-24T11:09:59;147433.00;;;5.50;100.00
6034;BME280;3045;43.226;27.858;2023-01-24T11:12:27;147387.69;;;5.32;100.00
6034;BME280;3045;43.226;27.858;2023-01-24T11:14:54;147410.34;;;5.41;100.00
6034;BME280;3045;43.226;27.858;2023-01-24T11:17:31;147433.00;;;5.50;100.00
6034;BME280;3045;43.226;27.858;2023-01-24T11:20:03;147470.75;;;5.65;100.00
6034;BME280;3045;43.226;27.858;2023-01-24T11:22:32;147410.34;;;5.41;100.00
6034;BME280;3045;43.226;27.858;2023-01-24T11:25:03;147383.94;;;5.30;100.00
6034;BME280;3045;43.226;27.858;2023-01-24T11:27:44;147387.69;;;5.32;100.00
6034;BME280;3045;43.226;27.858;2023-01-24T11:30:16;147381.41;;;5.29;100.00
6034;BME280;3045;43.226;27.858;2023-01-24T11:32:52;147360.00;;;5.21;100.00
6034;BME280;3045;43.226;27.858;2023-01-24T11:35:25;147409.06;;;5.40;100.00
6034;BME280;3045;43.226;27.858;2023-01-24T11:38:11;147407.81;;;5.40;100.00
6034;BME280;3045;43.226;27.858;2023-01-24T11:40:43;147412.88;;;5.42;100.00
6034;BME280;3045;43.226;27.858;2023-01-24T11:43:24;147448.06;;;5.56;100.00
6034;BME280;3045;43.226;27.858;2023-01-24T11:46:19;147453.13;;;5.58;100.00
6034;BME280;3045;43.226;27.858;2023-01-24T11:48:52;147366.28;;;5.23;100.00
6034;BME280;3045;43.226;27.858;2023-01-24T11:51:31;147387.69;;;5.32;100.00
6034;BME280;3045;43.226;27.858;2023-01-24T11:54:13;147317.22;;;5.03;100.00
6034;BME280;3045;43.226;27.858;2023-01-24T11:56:49;147327.28;;;5.07;100.00
6034;BME280;3045;43.226;27.858;2023-01-24T11:59:30;147313.44;;;5.02;100.00
6034;BME280;3045;43.226;27.858;2023-01-24T12:02:08;147309.69;;;5.00;100.00
6034;BME280;3045;43.226;27.858;2023-01-24T12:05:10;147308.44;;;5.00;100.00
6034;BME280;3045;43.226;27.858;2023-01-24T12:07:53;147334.81;;;5.11;100.00
6034;BME280;3045;43.226;27.858;2023-01-24T12:10:27;147338.63;;;5.12;100.00
6034;BME280;3045;43.226;27.858;2023-01-24T12:13:05;147354.94;;;5.19;100.00
6034;BME280;3045;43.226;27.858;2023-01-24T12:15:38;147348.69;;;5.16;100.00
6034;BME280;3045;43.226;27.858;2023-01-24T12:21:21;147401.53;;;5.37;100.00
6034;BME280;3045;43.226;27.858;2023-01-24T12:23:55;147410.34;;;5.41;100.00
6034;BME280;3045;43.226;27.858;2023-01-24T12:26:25;147434.28;;;5.50;100.00
6034;BME280;3045;43.226;27.858;2023-01-24T12:29:00;147425.47;;;5.47;100.00
6034;BME280;3045;43.226;27.858;2023-01-24T12:31:35;147353.69;;;5.18;100.00
6034;BME280;3045;43.226;27.858;2023-01-24T12:34:13;147373.81;;;5.26;100.00
6034;BME280;3045;43.226;27.858;2023-01-24T12:36:47;147317.22;;;5.03;100.00
6034;BME280;3045;43.226;27.858;2023-01-24T12:39:19;147327.28;;;5.07;100.00
6034;BME280;3045;43.226;27.858;2023-01-24T12:41:51;147319.75;;;5.04;100.00
6034;BME280;3045;43.226;27.858;2023-01-24T12:44:26;147295.84;;;4.95;100.00
6034;BME280;3045;43.226;27.858;2023-01-24T12:47:11;147283.25;;;4.90;100.00
6034;BME280;3045;43.226;27.858;2023-01-24T12:49:46;147264.38;;;4.82;100.00
6034;BME280;3045;43.226;27.858;2023-01-24T12:52:23;147274.44;;;4.86;100.00
6034;BME280;3045;43.226;27.858;2023-01-24T12:54:58;147260.59;;;4.81;100.00
6034;BME280;3045;43.226;27.858;2023-01-24T12:57:30;147246.78;;;4.75;100.00
6034;BME280;3045;43.226;27.858;2023-01-24T12:59:58;147271.91;;;4.85;100.00
6034;BME280;3045;43.226;27.858;2023-01-24T13:02:41;147271.91;;;4.85;100.00
6034;BME280;3045;43.226;27.858;2023-01-24T13:05:25;147283.25;;;4.90;100.00
6034;BME280;3045;43.226;27.858;2023-01-24T13:08:04;147265.66;;;4.83;100.00
6034;BME280;3045;43.226;27.858;2023-01-24T13:10:48;147261.84;;;4.81;100.00
6034;BME280;3045;43.226;27.858;2023-01-24T13:13:23;147273.19;;;4.86;100.00
6034;BME280;3045;43.226;27.858;2023-01-24T13:16:04;147287.03;;;4.91;100.00
6034;BME280;3045;43.226;27.858;2023-01-24T13:18:42;147284.50;;;4.90;100.00
6034;BME280;3045;43.226;27.858;2023-01-24T13:21:18;147266.91;;;4.83;100.00
6034;BME280;3045;43.226;27.858;2023-01-24T13:24:12;147264.38;;;4.82;100.00
6034;BME280;3045;43.226;27.858;2023-01-24T13:27:16;147281.97;;;4.89;100.00
6034;BME280;3045;43.226;27.858;2023-01-24T13:32:39;147280.72;;;4.89;100.00